createdAt,value
2023-12-21T00:00:02.430Z,95085.00
2023-12-21T00:01:02.293Z,95085.00
2023-12-21T00:02:02.162Z,95085.00
2023-12-21T00:03:01.852Z,95083.00
2023-12-21T00:04:01.736Z,95085.00
2023-12-21T00:05:01.703Z,95084.00
2023-12-21T00:56:27.264Z,95008.00
2023-12-21T00:56:52.159Z,95007.00
2023-12-21T00:57:52.518Z,95006.00
2023-12-21T00:58:51.801Z,95003.00
2023-12-21T00:59:51.613Z,95005.00
2023-12-21T01:00:51.467Z,95008.00
2023-12-21T01:01:51.337Z,95008.00
2023-12-21T01:02:51.087Z,95008.00
2023-12-21T01:03:50.896Z,95005.00
2023-12-21T01:04:50.712Z,95003.00
2023-12-21T01:05:50.582Z,94998.00
2023-12-21T01:06:50.350Z,94993.00
2023-12-21T01:07:50.568Z,94992.00
2023-12-21T01:08:49.969Z,94993.00
2023-12-21T01:09:49.790Z,94999.00
2023-12-21T01:10:49.603Z,95003.00
2023-12-21T01:11:49.428Z,95003.00
2023-12-21T01:12:49.228Z,95001.00
2023-12-21T01:13:49.037Z,94996.00
2023-12-21T01:14:48.853Z,94993.00
2023-12-21T01:15:48.670Z,94991.00
2023-12-21T01:16:48.489Z,94995.00
2023-12-21T01:17:48.777Z,94994.00
2023-12-21T01:18:48.135Z,94994.00
2023-12-21T01:19:48.008Z,94992.00
2023-12-21T01:20:47.778Z,94992.00
2023-12-21T01:21:47.569Z,94991.00
2023-12-21T01:22:47.382Z,94991.00
2023-12-21T01:23:47.205Z,94992.00
2023-12-21T01:24:47.029Z,94992.00
2023-12-21T01:25:46.877Z,94992.00
2023-12-21T01:26:46.655Z,94991.00
2023-12-21T01:27:46.767Z,94990.00
2023-12-21T01:28:46.290Z,94989.00
2023-12-21T01:29:46.130Z,94989.00
2023-12-21T01:30:46.028Z,94991.00
2023-12-21T01:31:45.785Z,94990.00
2023-12-21T01:32:45.711Z,94992.00
2023-12-21T01:33:45.481Z,94991.00
2023-12-21T01:34:45.308Z,94994.00
2023-12-21T01:35:45.045Z,94999.00
2023-12-21T01:36:44.853Z,95001.00
2023-12-21T01:37:45.019Z,95002.00
2023-12-21T01:38:44.497Z,95006.00
2023-12-21T01:39:44.320Z,95005.00
2023-12-21T01:40:44.227Z,95006.00
2023-12-21T01:41:43.953Z,95007.00
2023-12-21T01:42:44.120Z,95006.00
2023-12-21T01:43:43.691Z,95005.00
2023-12-21T01:44:43.431Z,95005.00
2023-12-21T01:45:43.245Z,95006.00
2023-12-21T01:46:43.058Z,95002.00
2023-12-21T01:47:43.018Z,94998.00
2023-12-21T01:48:42.821Z,94997.00
2023-12-21T01:49:42.593Z,94996.00
2023-12-21T01:50:43.994Z,94996.00
2023-12-21T01:51:42.193Z,94995.00
2023-12-21T01:52:42.007Z,94993.00
2023-12-21T01:53:41.806Z,94993.00
2023-12-21T01:54:41.645Z,94993.00
2023-12-21T01:55:41.649Z,94989.00
2023-12-21T01:56:41.329Z,94988.00
2023-12-21T01:57:41.145Z,94988.00
2023-12-21T01:58:40.999Z,94985.00
2023-12-21T01:59:40.790Z,94986.00
2023-12-21T02:00:40.643Z,94986.00
2023-12-21T02:01:40.530Z,94984.00
2023-12-21T02:02:40.318Z,94984.00
2023-12-21T02:03:40.124Z,94984.00
2023-12-21T02:04:40.128Z,94983.00
2023-12-21T02:05:39.777Z,94982.00
2023-12-21T02:06:39.544Z,94983.00
2023-12-21T02:07:39.427Z,94982.00
2023-12-21T02:08:39.194Z,94979.00
2023-12-21T02:09:39.024Z,94973.00
2023-12-21T02:10:38.906Z,94963.00
2023-12-21T02:11:38.676Z,94961.00
2023-12-21T02:12:38.504Z,94960.00
2023-12-21T02:13:38.368Z,94960.00
2023-12-21T02:14:38.148Z,94962.00
2023-12-21T02:15:37.998Z,94959.00
2023-12-21T02:16:37.832Z,94955.00
2023-12-21T02:17:37.634Z,94953.00
2023-12-21T02:18:37.580Z,94952.00
2023-12-21T02:19:37.290Z,94949.00
2023-12-21T02:20:37.092Z,94950.00
2023-12-21T02:21:36.917Z,94948.00
2023-12-21T02:22:36.802Z,94947.00
2023-12-21T02:23:36.577Z,94948.00
2023-12-21T02:24:36.387Z,94950.00
2023-12-21T02:25:36.346Z,94952.00
2023-12-21T02:26:36.046Z,94953.00
2023-12-21T02:27:35.851Z,94946.00
2023-12-21T02:28:35.725Z,94939.00
2023-12-21T02:29:35.496Z,94933.00
2023-12-21T02:30:35.350Z,94931.00
2023-12-21T02:31:35.187Z,94932.00
2023-12-21T02:32:34.996Z,94936.00
2023-12-21T02:33:34.845Z,94936.00
2023-12-21T02:34:34.670Z,94937.00
2023-12-21T02:35:34.443Z,94937.00
2023-12-21T02:36:34.284Z,94936.00
2023-12-21T02:37:34.153Z,94937.00
2023-12-21T02:38:33.943Z,94938.00
2023-12-21T02:39:33.740Z,94936.00
2023-12-21T02:40:33.585Z,94936.00
2023-12-21T02:41:33.408Z,94934.00
2023-12-21T02:42:33.231Z,94935.00
2023-12-21T02:43:33.121Z,94934.00
2023-12-21T02:44:32.869Z,94933.00
2023-12-21T02:45:32.694Z,94932.00
2023-12-21T02:46:32.520Z,94934.00
2023-12-21T02:47:32.407Z,94936.00
2023-12-21T02:48:32.235Z,94937.00
2023-12-21T02:49:32.057Z,94933.00
2023-12-21T02:50:31.787Z,94930.00
2023-12-21T02:51:31.624Z,94927.00
2023-12-21T02:52:31.529Z,94925.00
2023-12-21T02:53:31.257Z,94924.00
2023-12-21T02:54:31.066Z,94922.00
2023-12-21T02:55:30.931Z,94924.00
2023-12-21T02:56:30.711Z,94922.00
2023-12-21T02:57:30.526Z,94922.00
2023-12-21T02:58:30.391Z,94921.00
2023-12-21T02:59:30.170Z,94918.00
2023-12-21T03:00:29.985Z,94915.00
2023-12-21T03:01:29.920Z,94913.00
2023-12-21T03:02:29.635Z,94913.00
2023-12-21T03:03:29.493Z,94916.00
2023-12-21T03:04:29.288Z,94914.00
2023-12-21T03:05:29.147Z,94919.00
2023-12-21T03:06:28.930Z,94917.00
2023-12-21T03:07:28.782Z,94917.00
2023-12-21T03:08:28.550Z,94917.00
2023-12-21T03:09:28.385Z,94917.00
2023-12-21T03:10:28.244Z,94917.00
2023-12-21T03:11:28.046Z,94919.00
2023-12-21T03:12:27.834Z,94913.00
2023-12-21T03:13:27.755Z,94907.00
2023-12-21T03:14:27.467Z,94901.00
2023-12-21T03:15:27.289Z,94897.00
2023-12-21T03:16:27.156Z,94889.00
2023-12-21T03:17:27.001Z,94885.00
2023-12-21T03:18:26.768Z,94884.00
2023-12-21T03:19:26.670Z,94884.00
2023-12-21T03:20:26.459Z,94888.00
2023-12-21T03:21:26.217Z,94888.00
2023-12-21T03:22:26.058Z,94884.00
2023-12-21T03:23:25.843Z,94879.00
2023-12-21T03:24:25.653Z,94877.00
2023-12-21T03:25:25.506Z,94874.00
2023-12-21T03:26:25.300Z,94869.00
2023-12-21T03:27:25.107Z,94867.00
2023-12-21T03:28:24.973Z,94869.00
2023-12-21T03:29:24.759Z,94866.00
2023-12-21T03:30:24.599Z,94864.00
2023-12-21T03:31:24.419Z,94862.00
2023-12-21T03:32:24.248Z,94859.00
2023-12-21T03:33:24.165Z,94858.00
2023-12-21T03:34:23.891Z,94856.00
2023-12-21T03:35:23.686Z,94856.00
2023-12-21T03:36:23.485Z,94854.00
2023-12-21T03:37:23.351Z,94849.00
2023-12-21T03:38:23.110Z,94848.00
2023-12-21T03:39:22.944Z,94842.00
2023-12-21T03:40:22.794Z,94834.00
2023-12-21T03:41:22.575Z,94832.00
2023-12-21T03:42:22.378Z,94834.00
2023-12-21T03:43:22.252Z,94837.00
2023-12-21T03:44:22.019Z,94836.00
2023-12-21T03:45:21.825Z,94835.00
2023-12-21T03:46:21.775Z,94834.00
2023-12-21T03:47:21.459Z,94827.00
2023-12-21T03:48:21.316Z,94822.00
2023-12-21T03:49:21.147Z,94819.00
2023-12-21T03:50:20.950Z,94816.00
2023-12-21T03:51:20.810Z,94814.00
2023-12-21T03:52:20.598Z,94814.00
2023-12-21T03:53:20.386Z,94812.00
2023-12-21T03:54:20.208Z,94809.00
2023-12-21T03:55:20.094Z,94812.00
2023-12-21T03:56:19.838Z,94812.00
2023-12-21T03:57:19.644Z,94811.00
2023-12-21T03:58:19.479Z,94814.00
2023-12-21T03:59:19.291Z,94816.00
2023-12-21T04:00:19.149Z,94816.00
2023-12-21T04:01:18.996Z,94818.00
2023-12-21T04:02:18.725Z,94816.00
2023-12-21T04:03:18.577Z,94815.00
2023-12-21T04:04:18.368Z,94810.00
2023-12-21T04:05:18.213Z,94805.00
2023-12-21T04:06:18.007Z,94806.00
2023-12-21T04:07:17.864Z,94806.00
2023-12-21T04:08:17.645Z,94809.00
2023-12-21T04:09:17.467Z,94809.00
2023-12-21T04:10:17.356Z,94806.00
2023-12-21T04:11:17.149Z,94805.00
2023-12-21T04:12:16.925Z,94805.00
2023-12-21T04:13:16.771Z,94803.00
2023-12-21T04:14:16.574Z,94801.00
2023-12-21T04:15:16.384Z,94798.00
2023-12-21T04:16:16.206Z,94798.00
2023-12-21T04:17:16.020Z,94801.00
2023-12-21T04:18:15.972Z,94802.00
2023-12-21T04:19:15.728Z,94808.00
2023-12-21T04:20:15.514Z,94809.00
2023-12-21T04:21:15.290Z,94812.00
2023-12-21T04:22:15.128Z,94811.00
2023-12-21T04:23:15.588Z,94810.00
2023-12-21T04:24:14.773Z,94812.00
2023-12-21T04:25:14.702Z,94811.00
2023-12-21T04:26:14.393Z,94809.00
2023-12-21T04:27:14.208Z,94807.00
2023-12-21T04:28:14.055Z,94805.00
2023-12-21T04:29:13.852Z,94803.00
2023-12-21T04:30:13.777Z,94797.00
2023-12-21T04:31:13.542Z,94795.00
2023-12-21T04:32:13.313Z,94789.00
2023-12-21T04:33:13.216Z,94784.00
2023-12-21T04:34:13.018Z,94783.00
2023-12-21T04:35:12.756Z,94778.00
2023-12-21T04:36:12.653Z,94773.00
2023-12-21T04:37:12.430Z,94767.00
2023-12-21T04:38:12.225Z,94761.00
2023-12-21T04:39:12.066Z,94759.00
2023-12-21T04:40:11.971Z,94759.00
2023-12-21T04:41:11.729Z,94758.00
2023-12-21T04:42:12.023Z,94755.00
2023-12-21T04:43:11.367Z,94753.00
2023-12-21T04:44:11.141Z,94748.00
2023-12-21T04:45:10.962Z,94746.00
2023-12-21T04:46:10.816Z,94743.00
2023-12-21T04:47:22.285Z,94741.00
2023-12-21T04:48:10.630Z,94739.00
2023-12-21T04:49:10.594Z,94738.00
2023-12-21T04:50:10.085Z,94744.00
2023-12-21T04:51:09.894Z,94748.00
2023-12-21T04:52:09.743Z,94751.00
2023-12-21T04:53:09.536Z,94751.00
2023-12-21T04:54:09.360Z,94751.00
2023-12-21T04:55:09.296Z,94744.00
2023-12-21T04:56:09.007Z,94738.00
2023-12-21T04:57:08.828Z,94733.00
2023-12-21T04:58:08.663Z,94730.00
2023-12-21T04:59:08.485Z,94727.00
2023-12-21T05:00:08.339Z,94728.00
2023-12-21T05:01:08.200Z,94729.00
2023-12-21T05:02:08.005Z,94733.00
2023-12-21T05:03:07.798Z,94732.00
2023-12-21T05:04:07.698Z,94731.00
2023-12-21T05:05:07.412Z,94730.00
2023-12-21T05:06:07.424Z,94727.00
2023-12-21T05:07:07.087Z,94728.00
2023-12-21T05:08:06.898Z,94730.00
2023-12-21T05:09:06.726Z,94731.00
2023-12-21T05:10:06.589Z,94728.00
2023-12-21T05:11:06.406Z,94723.00
2023-12-21T05:12:06.242Z,94721.00
2023-12-21T05:13:06.117Z,94717.00
2023-12-21T05:14:05.846Z,94714.00
2023-12-21T05:15:05.699Z,94713.00
2023-12-21T05:16:05.560Z,94716.00
2023-12-21T05:17:08.281Z,94721.00
2023-12-21T05:18:05.270Z,94722.00
2023-12-21T05:19:05.161Z,94724.00
2023-12-21T05:20:04.872Z,94725.00
2023-12-21T05:21:04.641Z,94734.00
2023-12-21T05:22:04.492Z,94735.00
2023-12-21T05:23:04.283Z,94734.00
2023-12-21T05:24:04.138Z,94732.00
2023-12-21T05:25:04.067Z,94729.00
2023-12-21T05:26:03.761Z,94732.00
2023-12-21T05:27:03.599Z,94736.00
2023-12-21T05:28:03.475Z,94734.00
2023-12-21T05:29:03.252Z,94729.00
2023-12-21T05:30:03.036Z,94723.00
2023-12-21T05:31:02.931Z,94714.00
2023-12-21T05:32:02.710Z,94706.00
2023-12-21T05:33:02.617Z,94699.00
2023-12-21T05:34:02.395Z,94699.00
2023-12-21T05:35:02.339Z,94701.00
2023-12-21T05:36:02.002Z,94700.00
2023-12-21T05:37:02.022Z,94699.00
2023-12-21T05:38:01.703Z,94693.00
2023-12-21T05:39:01.955Z,94686.00
2023-12-21T05:40:01.317Z,94686.00
2023-12-21T05:41:01.136Z,94685.00
2023-12-21T05:42:00.955Z,94686.00
2023-12-21T05:43:00.822Z,94691.00
2023-12-21T05:44:00.595Z,94697.00
2023-12-21T05:45:00.409Z,94700.00
2023-12-21T05:46:00.286Z,94704.00
2023-12-21T05:47:00.058Z,94699.00
2023-12-21T05:48:00.070Z,94696.00
2023-12-21T05:48:59.733Z,94692.00
2023-12-21T05:49:59.569Z,94689.00
2023-12-21T05:50:59.341Z,94689.00
2023-12-21T05:51:59.209Z,94688.00
2023-12-21T05:52:59.001Z,94684.00
2023-12-21T05:53:58.798Z,94683.00
2023-12-21T05:54:58.771Z,94681.00
2023-12-21T05:55:58.437Z,94679.00
2023-12-21T05:56:58.297Z,94684.00
2023-12-21T05:57:58.117Z,94685.00
2023-12-21T05:58:57.929Z,94681.00
2023-12-21T05:59:57.720Z,94681.00
2023-12-21T06:00:57.699Z,94680.00
2023-12-21T06:01:57.481Z,94682.00
2023-12-21T06:02:57.190Z,94685.00
2023-12-21T06:03:57.084Z,94683.00
2023-12-21T06:04:56.856Z,94689.00
2023-12-21T06:05:56.647Z,94693.00
2023-12-21T06:06:56.521Z,94697.00
2023-12-21T06:07:56.288Z,94697.00
2023-12-21T06:08:56.113Z,94698.00
2023-12-21T06:09:55.927Z,94696.00
2023-12-21T06:10:55.743Z,94685.00
2023-12-21T06:11:55.567Z,94678.00
2023-12-21T06:12:55.386Z,94671.00
2023-12-21T06:13:55.221Z,94668.00
2023-12-21T06:14:55.059Z,94667.00
2023-12-21T06:15:54.854Z,94671.00
2023-12-21T06:16:54.979Z,94670.00
2023-12-21T06:17:54.518Z,94675.00
2023-12-21T06:18:54.361Z,94673.00
2023-12-21T06:19:54.188Z,94669.00
2023-12-21T06:20:53.977Z,94662.00
2023-12-21T06:21:53.789Z,94659.00
2023-12-21T06:22:54.238Z,94660.00
2023-12-21T06:23:53.996Z,94662.00
2023-12-21T06:24:53.539Z,94661.00
2023-12-21T06:25:53.813Z,94660.00
2023-12-21T06:26:52.900Z,94660.00
2023-12-21T06:27:52.726Z,94665.00
2023-12-21T06:28:52.563Z,94665.00
2023-12-21T06:29:52.405Z,94671.00
2023-12-21T06:30:52.293Z,94668.00
2023-12-21T06:31:52.046Z,94666.00
2023-12-21T06:32:52.059Z,94663.00
2023-12-21T06:33:51.704Z,94657.00
2023-12-21T06:34:51.621Z,94651.00
2023-12-21T06:35:51.317Z,94649.00
2023-12-21T06:36:51.608Z,94651.00
2023-12-21T06:37:51.815Z,94654.00
2023-12-21T06:38:51.276Z,94649.00
2023-12-21T06:39:50.595Z,94645.00
2023-12-21T06:40:50.456Z,94641.00
2023-12-21T06:41:50.237Z,94642.00
2023-12-21T06:42:50.654Z,94639.00
2023-12-21T06:43:49.983Z,94639.00
2023-12-21T06:44:49.983Z,94637.00
2023-12-21T06:45:49.763Z,94639.00
2023-12-21T06:46:49.402Z,94636.00
2023-12-21T06:47:49.346Z,94633.00
2023-12-21T06:48:49.280Z,94631.00
2023-12-21T06:49:48.998Z,94631.00
2023-12-21T06:50:49.031Z,94634.00
2023-12-21T06:51:48.997Z,94633.00
2023-12-21T06:52:49.068Z,94632.00
2023-12-21T06:53:48.236Z,94638.00
2023-12-21T06:54:48.073Z,94635.00
2023-12-21T06:55:48.000Z,94634.00
2023-12-21T06:56:48.002Z,94630.00
2023-12-21T06:57:47.619Z,94628.00
2023-12-21T06:58:47.431Z,94626.00
2023-12-21T06:59:47.270Z,94623.00
2023-12-21T07:00:47.118Z,94621.00
2023-12-21T07:01:47.018Z,94620.00
2023-12-21T07:02:47.091Z,94621.00
2023-12-21T07:03:46.679Z,94626.00
2023-12-21T07:04:46.499Z,94628.00
2023-12-21T07:05:46.404Z,94630.00
2023-12-21T07:06:46.506Z,94627.00
2023-12-21T07:07:46.081Z,94624.00
2023-12-21T07:08:46.495Z,94622.00
2023-12-21T07:09:45.695Z,94622.00
2023-12-21T07:10:45.527Z,94625.00
2023-12-21T07:11:46.759Z,94627.00
2023-12-21T07:12:45.268Z,94626.00
2023-12-21T07:13:45.029Z,94626.00
2023-12-21T07:14:44.878Z,94620.00
2023-12-21T07:15:44.700Z,94619.00
2023-12-21T07:16:44.594Z,94621.00
2023-12-21T07:17:44.390Z,94622.00
2023-12-21T07:18:44.323Z,94623.00
2023-12-21T07:19:44.033Z,94620.00
2023-12-21T07:20:45.463Z,94613.00
2023-12-21T07:21:43.683Z,94610.00
2023-12-21T07:22:43.539Z,94607.00
2023-12-21T07:23:43.319Z,94603.00
2023-12-21T07:24:43.146Z,94602.00
2023-12-21T07:25:43.013Z,94600.00
2023-12-21T07:26:42.777Z,94599.00
2023-12-21T07:27:42.616Z,94602.00
2023-12-21T07:28:42.437Z,94602.00
2023-12-21T07:29:42.237Z,94605.00
2023-12-21T07:30:42.085Z,94602.00
2023-12-21T07:31:42.006Z,94595.00
2023-12-21T07:32:41.789Z,94596.00
2023-12-21T07:33:41.573Z,94599.00
2023-12-21T07:34:41.398Z,94601.00
2023-12-21T07:35:41.527Z,94598.00
2023-12-21T07:36:41.084Z,94594.00
2023-12-21T07:37:40.814Z,94598.00
2023-12-21T07:38:40.548Z,94598.00
2023-12-21T07:39:40.356Z,94600.00
2023-12-21T07:40:40.204Z,94598.00
2023-12-21T07:41:40.004Z,94597.00
2023-12-21T07:42:39.790Z,94593.00
2023-12-21T07:43:39.637Z,94592.00
2023-12-21T07:44:39.410Z,94595.00
2023-12-21T07:45:39.220Z,94594.00
2023-12-21T07:46:39.546Z,94595.00
2023-12-21T07:47:38.869Z,94591.00
2023-12-21T07:48:39.053Z,94587.00
2023-12-21T07:49:38.499Z,94584.00
2023-12-21T07:50:38.310Z,94584.00
2023-12-21T07:51:38.509Z,94578.00
2023-12-21T07:52:37.940Z,94575.00
2023-12-21T07:53:37.696Z,94573.00
2023-12-21T07:54:38.277Z,94575.00
2023-12-21T07:55:37.490Z,94580.00
2023-12-21T07:56:37.574Z,94579.00
2023-12-21T07:57:36.920Z,94574.00
2023-12-21T07:58:36.823Z,94571.00
2023-12-21T07:59:36.549Z,94569.00
2023-12-21T08:00:36.840Z,94570.00
2023-12-21T08:01:36.614Z,94566.00
2023-12-21T08:02:35.945Z,94560.00
2023-12-21T08:03:35.847Z,94561.00
2023-12-21T08:04:35.983Z,94556.00
2023-12-21T08:05:35.371Z,94555.00
2023-12-21T08:06:35.186Z,94552.00
2023-12-21T08:07:35.004Z,94551.00
2023-12-21T08:08:35.136Z,94541.00
2023-12-21T08:09:35.596Z,94536.00
2023-12-21T08:10:34.407Z,94530.00
2023-12-21T08:11:34.167Z,94528.00
2023-12-21T08:12:34.026Z,94531.00
2023-12-21T08:13:33.793Z,94528.00
2023-12-21T08:14:33.602Z,94526.00
2023-12-21T08:15:33.531Z,94524.00
2023-12-21T08:16:33.249Z,94523.00
2023-12-21T08:17:33.092Z,94522.00
2023-12-21T08:18:32.846Z,94518.00
2023-12-21T08:19:32.672Z,94511.00
2023-12-21T08:20:32.367Z,94509.00
2023-12-21T08:21:32.181Z,94512.00
2023-12-21T08:22:32.041Z,94514.00
2023-12-21T08:23:31.760Z,94513.00
2023-12-21T08:24:31.571Z,94508.00
2023-12-21T08:25:31.505Z,94501.00
2023-12-21T08:26:31.163Z,94496.00
2023-12-21T08:27:30.985Z,94495.00
2023-12-21T08:28:30.883Z,94491.00
2023-12-21T08:29:30.579Z,94485.00
2023-12-21T08:30:30.380Z,94479.00
2023-12-21T08:31:30.569Z,94478.00
2023-12-21T08:32:29.992Z,94476.00
2023-12-21T08:33:29.834Z,94472.00
2023-12-21T08:34:29.607Z,94465.00
2023-12-21T08:35:29.410Z,94462.00
2023-12-21T08:36:29.536Z,94465.00
2023-12-21T08:37:29.078Z,94465.00
2023-12-21T08:38:28.911Z,94458.00
2023-12-21T08:39:28.700Z,94461.00
2023-12-21T08:40:28.571Z,94462.00
2023-12-21T08:41:28.563Z,94458.00
2023-12-21T08:42:28.280Z,94456.00
2023-12-21T08:43:28.067Z,94460.00
2023-12-21T08:44:29.964Z,94455.00
2023-12-21T08:45:27.733Z,94450.00
2023-12-21T08:46:28.073Z,94447.00
2023-12-21T08:47:27.590Z,94439.00
2023-12-21T08:48:27.292Z,94438.00
2023-12-21T08:49:27.622Z,94439.00
2023-12-21T08:50:27.168Z,94434.00
2023-12-21T08:51:27.034Z,94430.00
2023-12-21T08:52:27.069Z,94429.00
2023-12-21T08:53:26.617Z,94428.00
2023-12-21T08:54:26.461Z,94422.00
2023-12-21T08:55:26.336Z,94409.00
2023-12-21T08:56:28.327Z,94398.00
2023-12-21T08:57:26.026Z,94399.00
2023-12-21T08:58:25.924Z,94403.00
2023-12-21T08:59:26.047Z,94402.00
2023-12-21T09:00:25.583Z,94390.00
2023-12-21T09:01:25.507Z,94387.00
2023-12-21T09:02:25.204Z,94388.00
2023-12-21T09:03:25.074Z,94392.00
2023-12-21T09:04:25.092Z,94394.00
2023-12-21T09:05:24.849Z,94396.00
2023-12-21T09:06:25.561Z,94390.00
2023-12-21T09:07:24.410Z,94389.00
2023-12-21T09:08:24.550Z,94389.00
2023-12-21T09:09:24.073Z,94387.00
2023-12-21T09:10:24.002Z,94386.00
2023-12-21T09:11:24.011Z,94384.00
2023-12-21T09:12:23.552Z,94378.00
2023-12-21T09:13:23.564Z,94376.00
2023-12-21T09:14:23.214Z,94379.00
2023-12-21T09:15:23.062Z,94383.00
2023-12-21T09:16:22.890Z,94383.00
2023-12-21T09:17:23.105Z,94382.00
2023-12-21T09:18:22.631Z,94377.00
2023-12-21T09:19:22.486Z,94375.00
2023-12-21T09:20:22.207Z,94378.00
2023-12-21T09:21:22.059Z,94377.00
2023-12-21T09:22:21.854Z,94377.00
2023-12-21T09:23:22.105Z,94378.00
2023-12-21T09:24:21.479Z,94378.00
2023-12-21T09:25:21.356Z,94380.00
2023-12-21T09:26:21.138Z,94380.00
2023-12-21T09:27:21.055Z,94381.00
2023-12-21T09:28:20.834Z,94380.00
2023-12-21T09:29:20.612Z,94383.00
2023-12-21T09:30:20.419Z,94388.00
2023-12-21T09:31:20.290Z,94393.00
2023-12-21T09:32:20.591Z,94394.00
2023-12-21T09:33:20.075Z,94392.00
2023-12-21T09:34:19.778Z,94391.00
2023-12-21T09:35:19.704Z,94387.00
2023-12-21T09:36:19.582Z,94382.00
2023-12-21T09:37:19.268Z,94380.00
2023-12-21T09:38:19.133Z,94378.00
2023-12-21T09:39:18.840Z,94376.00
2023-12-21T09:40:18.677Z,94373.00
2023-12-21T09:41:18.623Z,94373.00
2023-12-21T09:42:18.320Z,94372.00
2023-12-21T09:43:18.532Z,94368.00
2023-12-21T09:44:17.951Z,94364.00
2023-12-21T09:45:17.763Z,94362.00
2023-12-21T09:46:17.721Z,94359.00
2023-12-21T09:47:17.395Z,94356.00
2023-12-21T09:48:17.341Z,94355.00
2023-12-21T09:49:17.141Z,94353.00
2023-12-21T09:50:16.828Z,94346.00
2023-12-21T09:51:17.076Z,94345.00
2023-12-21T09:52:16.493Z,94346.00
2023-12-21T09:53:16.298Z,94341.00
2023-12-21T09:54:16.585Z,94339.00
2023-12-21T09:55:15.897Z,94338.00
2023-12-21T09:56:15.691Z,94334.00
2023-12-21T09:57:15.592Z,94331.00
2023-12-21T09:58:15.402Z,94323.00
2023-12-21T09:59:15.130Z,94321.00
2023-12-21T10:00:14.960Z,94319.00
2023-12-21T10:01:15.256Z,94313.00
2023-12-21T10:02:14.748Z,94314.00
2023-12-21T10:03:14.378Z,94311.00
2023-12-21T10:04:14.326Z,94308.00
2023-12-21T10:05:14.000Z,94307.00
2023-12-21T10:06:13.939Z,94304.00
2023-12-21T10:07:14.306Z,94299.00
2023-12-21T10:08:13.444Z,94295.00
2023-12-21T10:09:13.266Z,94293.00
2023-12-21T10:10:13.103Z,94289.00
2023-12-21T10:11:12.904Z,94283.00
2023-12-21T10:12:13.063Z,94282.00
2023-12-21T10:13:12.566Z,94282.00
2023-12-21T10:14:12.326Z,94281.00
2023-12-21T10:15:13.065Z,94274.00
2023-12-21T10:16:12.124Z,94274.00
2023-12-21T10:17:12.203Z,94275.00
2023-12-21T10:18:11.688Z,94271.00
2023-12-21T10:19:11.520Z,94264.00
2023-12-21T10:20:11.281Z,94262.00
2023-12-21T10:21:10.988Z,94259.00
2023-12-21T10:22:11.158Z,94259.00
2023-12-21T10:23:10.642Z,94258.00
2023-12-21T10:24:10.408Z,94257.00
2023-12-21T10:25:10.334Z,94256.00
2023-12-21T10:26:10.111Z,94252.00
2023-12-21T10:27:10.082Z,94248.00
2023-12-21T10:28:09.733Z,94245.00
2023-12-21T10:29:09.454Z,94242.00
2023-12-21T10:30:09.384Z,94241.00
2023-12-21T10:31:09.097Z,94237.00
2023-12-21T10:32:09.101Z,94230.00
2023-12-21T10:33:08.713Z,94229.00
2023-12-21T10:34:08.553Z,94225.00
2023-12-21T10:35:08.352Z,94220.00
2023-12-21T10:36:08.129Z,94215.00
2023-12-21T10:37:08.110Z,94212.00
2023-12-21T10:38:07.782Z,94210.00
2023-12-21T10:39:07.570Z,94210.00
2023-12-21T10:40:07.380Z,94210.00
2023-12-21T10:41:07.406Z,94201.00
2023-12-21T10:42:07.040Z,94193.00
2023-12-21T10:43:06.837Z,94184.00
2023-12-21T10:44:06.605Z,94173.00
2023-12-21T10:45:13.564Z,94166.00
2023-12-21T10:46:06.414Z,94166.00
2023-12-21T10:47:06.076Z,94165.00
2023-12-21T10:48:05.959Z,94166.00
2023-12-21T10:49:05.829Z,94165.00
2023-12-21T10:50:05.563Z,94164.00
2023-12-21T10:51:05.340Z,94158.00
2023-12-21T10:52:05.195Z,94154.00
2023-12-21T10:53:05.077Z,94153.00
2023-12-21T10:54:04.751Z,94154.00
2023-12-21T10:55:04.609Z,94155.00
2023-12-21T10:56:04.654Z,94151.00
2023-12-21T10:57:04.175Z,94150.00
2023-12-21T10:58:04.084Z,94146.00
2023-12-21T10:59:03.883Z,94141.00
2023-12-21T11:00:03.628Z,94142.00
2023-12-21T11:01:03.803Z,94142.00
2023-12-21T11:02:03.309Z,94146.00
2023-12-21T11:03:03.082Z,94140.00
2023-12-21T11:04:03.021Z,94131.00
2023-12-21T11:05:02.798Z,94125.00
2023-12-21T11:06:02.545Z,94123.00
2023-12-21T11:07:02.644Z,94122.00
2023-12-21T11:08:04.714Z,94123.00
2023-12-21T11:09:01.973Z,94119.00
2023-12-21T11:10:01.985Z,94112.00
2023-12-21T11:11:01.592Z,94108.00
2023-12-21T11:12:01.430Z,94108.00
2023-12-21T11:13:01.211Z,94112.00
2023-12-21T11:14:01.042Z,94111.00
2023-12-21T11:15:00.842Z,94111.00
2023-12-21T11:16:00.645Z,94114.00
2023-12-21T11:17:00.473Z,94115.00
2023-12-21T11:18:00.350Z,94116.00
2023-12-21T11:19:00.197Z,94116.00
2023-12-21T11:20:00.004Z,94112.00
2023-12-21T11:20:59.740Z,94107.00
2023-12-21T11:21:59.589Z,94102.00
2023-12-21T11:22:59.717Z,94093.00
2023-12-21T11:23:59.168Z,94080.00
2023-12-21T11:24:58.975Z,94080.00
2023-12-21T11:25:58.850Z,94084.00
2023-12-21T11:26:59.589Z,94085.00
2023-12-21T11:27:58.635Z,94086.00
2023-12-21T11:28:58.226Z,94083.00
2023-12-21T11:29:58.046Z,94082.00
2023-12-21T11:30:57.867Z,94083.00
2023-12-21T11:31:58.028Z,94079.00
2023-12-21T11:32:57.872Z,94079.00
2023-12-21T11:33:57.452Z,94084.00
2023-12-21T11:34:57.172Z,94087.00
2023-12-21T11:35:56.938Z,94083.00
2023-12-21T11:36:56.738Z,94083.00
2023-12-21T11:37:56.581Z,94080.00
2023-12-21T11:38:56.468Z,94080.00
2023-12-21T11:39:56.171Z,94079.00
2023-12-21T11:40:55.980Z,94076.00
2023-12-21T11:41:55.799Z,94063.00
2023-12-21T11:42:55.627Z,94054.00
2023-12-21T11:43:55.451Z,94046.00
2023-12-21T11:44:56.000Z,94048.00
2023-12-21T11:45:55.107Z,94045.00
2023-12-21T11:46:54.904Z,94047.00
2023-12-21T11:47:54.708Z,94047.00
2023-12-21T11:48:54.663Z,94043.00
2023-12-21T11:49:54.441Z,94035.00
2023-12-21T11:50:54.183Z,94028.00
2023-12-21T11:51:54.030Z,94030.00
2023-12-21T11:54:52.545Z,94021.00
2023-12-21T11:55:53.547Z,94024.00
2023-12-21T11:56:53.614Z,94023.00
2023-12-21T11:57:53.109Z,94015.00
2023-12-21T11:58:52.910Z,94009.00
2023-12-21T11:59:52.676Z,94008.00
2023-12-21T12:00:52.629Z,94004.00
2023-12-21T12:01:52.419Z,94009.00
2023-12-21T12:02:52.212Z,94008.00
2023-12-21T12:03:52.149Z,94008.00
2023-12-21T12:04:51.854Z,94004.00
2023-12-21T12:05:51.689Z,94003.00
2023-12-21T12:06:51.605Z,94003.00
2023-12-21T12:07:51.331Z,94001.00
2023-12-21T12:08:51.086Z,93997.00
2023-12-21T12:09:50.917Z,93992.00
2023-12-21T12:10:50.765Z,93994.00
2023-12-21T12:11:50.552Z,93990.00
2023-12-21T12:12:50.657Z,93987.00
2023-12-21T12:13:50.706Z,93979.00
2023-12-21T12:14:50.036Z,93973.00
2023-12-21T12:15:49.841Z,93968.00
2023-12-21T12:16:49.741Z,93962.00
2023-12-21T12:17:49.757Z,93955.00
2023-12-21T12:18:49.419Z,93953.00
2023-12-21T12:19:49.167Z,93951.00
2023-12-21T12:20:48.961Z,93958.00
2023-12-21T12:21:48.781Z,93962.00
2023-12-21T12:22:48.632Z,93955.00
2023-12-21T12:23:48.455Z,93950.00
2023-12-21T12:24:48.228Z,93946.00
2023-12-21T12:25:50.205Z,93944.00
2023-12-21T12:26:47.908Z,93940.00
2023-12-21T12:27:47.967Z,93939.00
2023-12-21T12:28:47.532Z,93931.00
2023-12-21T12:29:47.361Z,93924.00
2023-12-21T12:30:47.140Z,93916.00
2023-12-21T12:31:47.022Z,93913.00
2023-12-21T12:32:47.772Z,93906.00
2023-12-21T12:33:46.625Z,93900.00